N.E. Airport METARS
                                                                                                                                                                                                                                                                                                              KCGF   282145Z 32005KT 10SM CLR 04/M02 A3020                                KCLE   282151Z 34008KT 10SM SCT120 OVC200 06/M06 A3019 RMK AO2 SLP247 T00611061                                KBKL   282153Z 27005KT 10SM CLR 04/01 A3021 RMK AO2 SLP234 T00390006                                KLNN   282155Z AUTO 30005KT 10SM CLR 05/M02 A3021 RMK AO1 T00451022                                KYNG   282151Z 34009KT 10SM SCT050 BKN150 OVC250 08/M02 A3016 RMK AO2 SLP220 T00781022 $                                KPOV   282155Z AUTO 33007KT 10SM CLR 05/M07 A3016 RMK AO2 T00531073 PWINO                                                                                                                                                                                                                                                                                                                                          

Untitled Document   HOME PAGE

 

MAIN TOPICS

 

  Aviation   Operating Modes   SDR   Slow Scan TV   My Logbook   Awards   My Station   Weather   My Projects   Radio History   Hamvention

 

ABOUT

 

  N8MDP   Contact Me

CQ CQ CQ

 

If you have a question or a comment. please do not hesitate to ask here.



Untitled Document

 

Aviation Videos

 

I love flying especially when I am in the left seat of a Cessna 172. After getting my license, I bought a GoPro camera to record some of my flying. Here are some of my favorite videos that I have taken. I use these videos to study my flying and learn from mistakes and what I can do to improve. Click on the video to start. Enjoy!

 

NOTE: These videos don't seem to work in the Apple Safari browser. I'm working to figure out how to get them working.

 

Number of videos available: 19

Untitled Document
Untitled Document

AVIATION TOPICS

 

  Experience   Local Airports   Local METARS   ADS-B   Pictures   Cessna 172 Videos   Jet Videos   CheckWX

 

 

Useful Information

 

Local ADS-B Virtual Radar Sweep

radar

 

METARs for my local airports:

 

Cuyahoga County Airport (KCGF)

 

Cleveland Hopkins International (KCLE)

 

Lake County Executive Airport (KLNN)

 

Burke Lakefront Airport (KBKL)

 

Youngstown-Warren Regional Airport (KYNG)

 

Akron-Canton Regional Airport (KCAK)

 

|   Home   |    N8MDP   |    Aviation   |    Projects   |    Weather   |   Logbook    |    Contact   |


© 2023 , Jonathan Tucker N8MDP. All Rights Reserved.
Image by macrovector_official on Freepik